sensor_id;sensor_type;location;lat;lon;timestamp;P1;durP1;ratioP1;P2;durP2;ratioP2
44189;SDS011;29856;52.144;5.430;2023-02-20T00:00:55;13.13;;;8.85;;
44189;SDS011;29856;52.144;5.430;2023-02-20T00:03:20;17.80;;;9.30;;
44189;SDS011;29856;52.144;5.430;2023-02-20T00:05:46;19.67;;;9.50;;
44189;SDS011;29856;52.144;5.430;2023-02-20T00:08:11;16.73;;;9.75;;
44189;SDS011;29856;52.144;5.430;2023-02-20T00:10:37;15.23;;;9.13;;
44189;SDS011;29856;52.144;5.430;2023-02-20T00:13:02;18.05;;;9.65;;
44189;SDS011;29856;52.144;5.430;2023-02-20T00:15:28;17.45;;;9.90;;
44189;SDS011;29856;52.144;5.430;2023-02-20T00:17:53;18.70;;;10.60;;
44189;SDS011;29856;52.144;5.430;2023-02-20T00:20:20;16.83;;;10.35;;
44189;SDS011;29856;52.144;5.430;2023-02-20T00:22:47;19.08;;;9.10;;
44189;SDS011;29856;52.144;5.430;2023-02-20T00:25:14;17.15;;;9.18;;
44189;SDS011;29856;52.144;5.430;2023-02-20T00:27:41;17.52;;;10.05;;
44189;SDS011;29856;52.144;5.430;2023-02-20T00:30:09;18.70;;;9.20;;
44189;SDS011;29856;52.144;5.430;2023-02-20T00:32:39;16.58;;;10.23;;
44189;SDS011;29856;52.144;5.430;2023-02-20T00:35:05;16.42;;;9.15;;
44189;SDS011;29856;52.144;5.430;2023-02-20T00:37:33;17.83;;;10.43;;
44189;SDS011;29856;52.144;5.430;2023-02-20T00:39:58;18.63;;;11.07;;
44189;SDS011;29856;52.144;5.430;2023-02-20T00:42:24;17.17;;;9.80;;
44189;SDS011;29856;52.144;5.430;2023-02-20T00:44:49;22.08;;;10.73;;
44189;SDS011;29856;52.144;5.430;2023-02-20T00:47:15;19.83;;;11.90;;
44189;SDS011;29856;52.144;5.430;2023-02-20T00:49:40;21.13;;;12.10;;
44189;SDS011;29856;52.144;5.430;2023-02-20T00:52:08;16.15;;;11.10;;
44189;SDS011;29856;52.144;5.430;2023-02-20T00:54:33;19.83;;;11.68;;
44189;SDS011;29856;52.144;5.430;2023-02-20T00:56:59;19.20;;;11.32;;
44189;SDS011;29856;52.144;5.430;2023-02-20T00:59:24;22.23;;;11.13;;
44189;SDS011;29856;52.144;5.430;2023-02-20T01:01:50;19.35;;;12.00;;
44189;SDS011;29856;52.144;5.430;2023-02-20T01:04:15;21.35;;;12.60;;
44189;SDS011;29856;52.144;5.430;2023-02-20T01:06:41;21.42;;;12.05;;
44189;SDS011;29856;52.144;5.430;2023-02-20T01:09:06;18.67;;;11.43;;
44189;SDS011;29856;52.144;5.430;2023-02-20T01:11:32;22.63;;;12.98;;
44189;SDS011;29856;52.144;5.430;2023-02-20T01:13:57;23.20;;;14.88;;
44189;SDS011;29856;52.144;5.430;2023-02-20T01:16:23;25.45;;;14.48;;
44189;SDS011;29856;52.144;5.430;2023-02-20T01:18:49;28.52;;;14.35;;
44189;SDS011;29856;52.144;5.430;2023-02-20T01:21:15;27.58;;;15.23;;
44189;SDS011;29856;52.144;5.430;2023-02-20T01:23:40;30.67;;;16.60;;
44189;SDS011;29856;52.144;5.430;2023-02-20T01:26:06;31.35;;;17.67;;
44189;SDS011;29856;52.144;5.430;2023-02-20T01:28:31;29.17;;;17.23;;
44189;SDS011;29856;52.144;5.430;2023-02-20T01:30:57;28.40;;;15.10;;
44189;SDS011;29856;52.144;5.430;2023-02-20T01:33:22;34.92;;;19.70;;
44189;SDS011;29856;52.144;5.430;2023-02-20T01:35:48;31.58;;;16.15;;
44189;SDS011;29856;52.144;5.430;2023-02-20T01:38:13;25.05;;;12.65;;
44189;SDS011;29856;52.144;5.430;2023-02-20T01:40:39;37.47;;;20.70;;
44189;SDS011;29856;52.144;5.430;2023-02-20T01:43:11;41.70;;;22.52;;
44189;SDS011;29856;52.144;5.430;2023-02-20T01:45:37;29.92;;;17.30;;
44189;SDS011;29856;52.144;5.430;2023-02-20T01:48:03;28.08;;;14.50;;
44189;SDS011;29856;52.144;5.430;2023-02-20T01:50:39;25.23;;;13.73;;
44189;SDS011;29856;52.144;5.430;2023-02-20T01:53:11;26.13;;;14.02;;
44189;SDS011;29856;52.144;5.430;2023-02-20T01:55:43;25.40;;;14.00;;
44189;SDS011;29856;52.144;5.430;2023-02-20T01:58:17;28.52;;;15.05;;
44189;SDS011;29856;52.144;5.430;2023-02-20T02:00:47;22.25;;;12.90;;
44189;SDS011;29856;52.144;5.430;2023-02-20T02:03:17;28.02;;;14.35;;
44189;SDS011;29856;52.144;5.430;2023-02-20T02:05:47;34.10;;;17.63;;
44189;SDS011;29856;52.144;5.430;2023-02-20T02:08:17;28.33;;;14.32;;
44189;SDS011;29856;52.144;5.430;2023-02-20T02:10:51;34.33;;;19.17;;
44189;SDS011;29856;52.144;5.430;2023-02-20T02:13:23;34.08;;;15.77;;
44189;SDS011;29856;52.144;5.430;2023-02-20T02:15:51;28.98;;;16.15;;
44189;SDS011;29856;52.144;5.430;2023-02-20T02:40:00;38.60;;;20.63;;
44189;SDS011;29856;52.144;5.430;2023-02-20T02:42:40;44.25;;;21.27;;
44189;SDS011;29856;52.144;5.430;2023-02-20T02:45:27;36.35;;;20.17;;
44189;SDS011;29856;52.144;5.430;2023-02-20T02:48:03;36.05;;;21.77;;
44189;SDS011;29856;52.144;5.430;2023-02-20T02:50:47;41.22;;;20.70;;
44189;SDS011;29856;52.144;5.430;2023-02-20T02:53:15;40.33;;;22.27;;
44189;SDS011;29856;52.144;5.430;2023-02-20T02:55:40;43.17;;;23.02;;
44189;SDS011;29856;52.144;5.430;2023-02-20T02:58:07;44.33;;;23.13;;
44189;SDS011;29856;52.144;5.430;2023-02-20T03:00:37;42.20;;;22.83;;
44189;SDS011;29856;52.144;5.430;2023-02-20T03:08:25;44.85;;;25.30;;
44189;SDS011;29856;52.144;5.430;2023-02-20T03:11:01;51.78;;;25.23;;
44189;SDS011;29856;52.144;5.430;2023-02-20T03:13:30;47.75;;;26.08;;
44189;SDS011;29856;52.144;5.430;2023-02-20T03:15:59;52.15;;;28.00;;
44189;SDS011;29856;52.144;5.430;2023-02-20T03:18:30;62.33;;;28.17;;
44189;SDS011;29856;52.144;5.430;2023-02-20T03:21:05;51.53;;;27.83;;
44189;SDS011;29856;52.144;5.430;2023-02-20T03:23:40;55.07;;;28.90;;
44189;SDS011;29856;52.144;5.430;2023-02-20T03:26:19;49.65;;;27.92;;
44189;SDS011;29856;52.144;5.430;2023-02-20T03:28:51;54.13;;;27.05;;
44189;SDS011;29856;52.144;5.430;2023-02-20T03:31:55;59.05;;;28.60;;
44189;SDS011;29856;52.144;5.430;2023-02-20T03:34:28;53.97;;;28.95;;
44189;SDS011;29856;52.144;5.430;2023-02-20T03:37:02;47.97;;;27.88;;
44189;SDS011;29856;52.144;5.430;2023-02-20T03:39:36;52.80;;;27.98;;
44189;SDS011;29856;52.144;5.430;2023-02-20T03:42:06;46.63;;;27.40;;
44189;SDS011;29856;52.144;5.430;2023-02-20T03:44:35;48.70;;;26.95;;
44189;SDS011;29856;52.144;5.430;2023-02-20T03:47:02;54.92;;;29.48;;
44189;SDS011;29856;52.144;5.430;2023-02-20T03:49:31;44.90;;;24.88;;
44189;SDS011;29856;52.144;5.430;2023-02-20T03:52:01;49.10;;;27.88;;
44189;SDS011;29856;52.144;5.430;2023-02-20T03:54:27;64.13;;;29.25;;
44189;SDS011;29856;52.144;5.430;2023-02-20T03:56:55;55.97;;;28.42;;
44189;SDS011;29856;52.144;5.430;2023-02-20T03:59:31;62.97;;;28.73;;
44189;SDS011;29856;52.144;5.430;2023-02-20T04:02:03;54.63;;;27.52;;
44189;SDS011;29856;52.144;5.430;2023-02-20T04:04:37;48.15;;;28.02;;
44189;SDS011;29856;52.144;5.430;2023-02-20T04:07:11;65.68;;;29.08;;
44189;SDS011;29856;52.144;5.430;2023-02-20T04:09:42;56.85;;;27.17;;
44189;SDS011;29856;52.144;5.430;2023-02-20T04:12:26;54.75;;;28.00;;
44189;SDS011;29856;52.144;5.430;2023-02-20T04:14:56;59.53;;;27.77;;
44189;SDS011;29856;52.144;5.430;2023-02-20T04:17:31;59.55;;;29.17;;
44189;SDS011;29856;52.144;5.430;2023-02-20T04:20:03;58.60;;;28.20;;
44189;SDS011;29856;52.144;5.430;2023-02-20T04:22:30;48.85;;;28.15;;
44189;SDS011;29856;52.144;5.430;2023-02-20T04:25:02;61.38;;;28.48;;
44189;SDS011;29856;52.144;5.430;2023-02-20T04:27:38;55.30;;;29.17;;
44189;SDS011;29856;52.144;5.430;2023-02-20T04:30:04;68.30;;;30.30;;
44189;SDS011;29856;52.144;5.430;2023-02-20T04:32:30;55.40;;;31.48;;
44189;SDS011;29856;52.144;5.430;2023-02-20T04:34:55;55.72;;;30.15;;
44189;SDS011;29856;52.144;5.430;2023-02-20T04:37:21;52.67;;;28.65;;
44189;SDS011;29856;52.144;5.430;2023-02-20T04:39:46;48.05;;;28.70;;
44189;SDS011;29856;52.144;5.430;2023-02-20T04:42:12;49.45;;;29.63;;
44189;SDS011;29856;52.144;5.430;2023-02-20T04:44:37;60.95;;;30.33;;
44189;SDS011;29856;52.144;5.430;2023-02-20T04:47:04;60.15;;;31.92;;
44189;SDS011;29856;52.144;5.430;2023-02-20T04:49:32;52.33;;;31.00;;
44189;SDS011;29856;52.144;5.430;2023-02-20T04:51:58;53.08;;;30.48;;
44189;SDS011;29856;52.144;5.430;2023-02-20T04:54:24;56.78;;;30.42;;
44189;SDS011;29856;52.144;5.430;2023-02-20T04:56:50;51.33;;;30.17;;
44189;SDS011;29856;52.144;5.430;2023-02-20T04:59:16;62.72;;;30.73;;
44189;SDS011;29856;52.144;5.430;2023-02-20T05:01:42;61.65;;;31.75;;
44189;SDS011;29856;52.144;5.430;2023-02-20T05:04:07;60.42;;;32.08;;
44189;SDS011;29856;52.144;5.430;2023-02-20T05:06:33;61.22;;;31.15;;
44189;SDS011;29856;52.144;5.430;2023-02-20T05:09:05;61.03;;;32.67;;
44189;SDS011;29856;52.144;5.430;2023-02-20T05:11:30;65.40;;;32.08;;
44189;SDS011;29856;52.144;5.430;2023-02-20T05:13:56;64.50;;;31.95;;
44189;SDS011;29856;52.144;5.430;2023-02-20T05:16:21;63.95;;;30.90;;
44189;SDS011;29856;52.144;5.430;2023-02-20T05:18:46;58.67;;;31.48;;
44189;SDS011;29856;52.144;5.430;2023-02-20T05:21:12;56.58;;;30.70;;
44189;SDS011;29856;52.144;5.430;2023-02-20T05:23:38;57.92;;;30.35;;
44189;SDS011;29856;52.144;5.430;2023-02-20T05:26:07;52.38;;;28.33;;
44189;SDS011;29856;52.144;5.430;2023-02-20T05:28:34;61.10;;;30.88;;
44189;SDS011;29856;52.144;5.430;2023-02-20T05:30:59;52.78;;;28.48;;
44189;SDS011;29856;52.144;5.430;2023-02-20T05:33:25;59.42;;;27.90;;
44189;SDS011;29856;52.144;5.430;2023-02-20T05:35:50;52.83;;;28.75;;
44189;SDS011;29856;52.144;5.430;2023-02-20T05:38:16;54.58;;;28.60;;
44189;SDS011;29856;52.144;5.430;2023-02-20T05:40:42;53.58;;;28.08;;
44189;SDS011;29856;52.144;5.430;2023-02-20T05:43:08;51.40;;;27.52;;
44189;SDS011;29856;52.144;5.430;2023-02-20T05:45:33;51.95;;;25.83;;
44189;SDS011;29856;52.144;5.430;2023-02-20T05:47:59;45.72;;;26.20;;
44189;SDS011;29856;52.144;5.430;2023-02-20T05:50:24;48.08;;;23.70;;
44189;SDS011;29856;52.144;5.430;2023-02-20T05:52:50;46.20;;;24.17;;
44189;SDS011;29856;52.144;5.430;2023-02-20T05:55:15;43.22;;;24.50;;
44189;SDS011;29856;52.144;5.430;2023-02-20T05:57:41;50.97;;;23.85;;
44189;SDS011;29856;52.144;5.430;2023-02-20T06:00:07;50.50;;;24.80;;
44189;SDS011;29856;52.144;5.430;2023-02-20T06:02:32;45.08;;;22.95;;
44189;SDS011;29856;52.144;5.430;2023-02-20T06:04:58;39.40;;;23.02;;
44189;SDS011;29856;52.144;5.430;2023-02-20T06:07:24;52.65;;;23.00;;
44189;SDS011;29856;52.144;5.430;2023-02-20T06:09:49;36.10;;;19.25;;
44189;SDS011;29856;52.144;5.430;2023-02-20T06:12:15;38.38;;;18.05;;
44189;SDS011;29856;52.144;5.430;2023-02-20T06:14:40;43.35;;;19.95;;
44189;SDS011;29856;52.144;5.430;2023-02-20T06:17:06;37.63;;;19.33;;
44189;SDS011;29856;52.144;5.430;2023-02-20T06:19:31;35.22;;;18.52;;
44189;SDS011;29856;52.144;5.430;2023-02-20T06:21:57;35.92;;;16.92;;
44189;SDS011;29856;52.144;5.430;2023-02-20T06:24:22;37.70;;;18.00;;
44189;SDS011;29856;52.144;5.430;2023-02-20T06:26:48;43.22;;;18.60;;
44189;SDS011;29856;52.144;5.430;2023-02-20T06:29:15;44.95;;;17.65;;
44189;SDS011;29856;52.144;5.430;2023-02-20T06:31:41;33.65;;;17.30;;
44189;SDS011;29856;52.144;5.430;2023-02-20T06:34:08;40.28;;;17.02;;
44189;SDS011;29856;52.144;5.430;2023-02-20T06:36:35;33.85;;;16.45;;
44189;SDS011;29856;52.144;5.430;2023-02-20T06:39:03;36.33;;;16.52;;
44189;SDS011;29856;52.144;5.430;2023-02-20T06:41:30;36.72;;;16.65;;
44189;SDS011;29856;52.144;5.430;2023-02-20T06:43:55;38.15;;;15.32;;
44189;SDS011;29856;52.144;5.430;2023-02-20T06:46:21;39.92;;;15.68;;
44189;SDS011;29856;52.144;5.430;2023-02-20T06:48:51;41.00;;;17.60;;
44189;SDS011;29856;52.144;5.430;2023-02-20T06:51:19;32.97;;;16.65;;
44189;SDS011;29856;52.144;5.430;2023-02-20T06:53:46;36.15;;;16.15;;
44189;SDS011;29856;52.144;5.430;2023-02-20T06:56:19;33.42;;;15.65;;
44189;SDS011;29856;52.144;5.430;2023-02-20T06:58:47;45.90;;;16.50;;
44189;SDS011;29856;52.144;5.430;2023-02-20T07:01:14;35.33;;;16.52;;
44189;SDS011;29856;52.144;5.430;2023-02-20T07:03:40;39.17;;;15.45;;
44189;SDS011;29856;52.144;5.430;2023-02-20T07:06:06;33.90;;;15.23;;
44189;SDS011;29856;52.144;5.430;2023-02-20T07:08:31;32.72;;;15.32;;
44189;SDS011;29856;52.144;5.430;2023-02-20T07:10:57;37.35;;;15.45;;
44189;SDS011;29856;52.144;5.430;2023-02-20T07:13:23;37.78;;;15.10;;
44189;SDS011;29856;52.144;5.430;2023-02-20T07:15:48;39.50;;;15.70;;
44189;SDS011;29856;52.144;5.430;2023-02-20T07:18:14;40.88;;;13.68;;
44189;SDS011;29856;52.144;5.430;2023-02-20T07:20:40;28.10;;;14.30;;
44189;SDS011;29856;52.144;5.430;2023-02-20T07:23:05;36.88;;;13.68;;
44189;SDS011;29856;52.144;5.430;2023-02-20T07:25:31;37.42;;;14.45;;
44189;SDS011;29856;52.144;5.430;2023-02-20T07:27:56;34.47;;;13.05;;
44189;SDS011;29856;52.144;5.430;2023-02-20T07:30:22;33.63;;;13.23;;
44189;SDS011;29856;52.144;5.430;2023-02-20T07:32:47;34.70;;;12.02;;
44189;SDS011;29856;52.144;5.430;2023-02-20T07:35:12;30.13;;;11.50;;
44189;SDS011;29856;52.144;5.430;2023-02-20T07:37:38;33.78;;;12.68;;
44189;SDS011;29856;52.144;5.430;2023-02-20T07:40:03;36.90;;;13.32;;
44189;SDS011;29856;52.144;5.430;2023-02-20T07:42:29;37.00;;;13.77;;
44189;SDS011;29856;52.144;5.430;2023-02-20T07:44:55;34.85;;;13.10;;
44189;SDS011;29856;52.144;5.430;2023-02-20T07:47:20;35.47;;;13.48;;
44189;SDS011;29856;52.144;5.430;2023-02-20T07:49:46;33.38;;;13.45;;
44189;SDS011;29856;52.144;5.430;2023-02-20T07:52:11;33.80;;;13.15;;
44189;SDS011;29856;52.144;5.430;2023-02-20T07:54:36;36.45;;;12.98;;
44189;SDS011;29856;52.144;5.430;2023-02-20T07:57:02;42.63;;;14.85;;
44189;SDS011;29856;52.144;5.430;2023-02-20T07:59:27;36.47;;;13.45;;
44189;SDS011;29856;52.144;5.430;2023-02-20T08:01:53;30.20;;;11.60;;
44189;SDS011;29856;52.144;5.430;2023-02-20T08:04:18;33.55;;;12.40;;
44189;SDS011;29856;52.144;5.430;2023-02-20T08:06:44;34.42;;;12.88;;
44189;SDS011;29856;52.144;5.430;2023-02-20T08:09:09;35.30;;;12.77;;
44189;SDS011;29856;52.144;5.430;2023-02-20T08:11:35;43.65;;;13.50;;
44189;SDS011;29856;52.144;5.430;2023-02-20T08:14:02;33.05;;;12.48;;
44189;SDS011;29856;52.144;5.430;2023-02-20T08:16:29;37.85;;;11.93;;
44189;SDS011;29856;52.144;5.430;2023-02-20T08:18:54;27.75;;;11.77;;
44189;SDS011;29856;52.144;5.430;2023-02-20T08:21:20;31.10;;;10.73;;
44189;SDS011;29856;52.144;5.430;2023-02-20T08:23:46;30.25;;;13.23;;
44189;SDS011;29856;52.144;5.430;2023-02-20T08:26:12;32.58;;;13.20;;
44189;SDS011;29856;52.144;5.430;2023-02-20T08:28:37;31.98;;;12.23;;
44189;SDS011;29856;52.144;5.430;2023-02-20T08:31:03;28.30;;;12.15;;
44189;SDS011;29856;52.144;5.430;2023-02-20T08:33:29;34.17;;;14.55;;
44189;SDS011;29856;52.144;5.430;2023-02-20T08:35:55;35.88;;;13.38;;
44189;SDS011;29856;52.144;5.430;2023-02-20T08:38:25;31.23;;;11.10;;
44189;SDS011;29856;52.144;5.430;2023-02-20T08:40:53;39.00;;;12.70;;
44189;SDS011;29856;52.144;5.430;2023-02-20T08:43:19;32.08;;;12.48;;
44189;SDS011;29856;52.144;5.430;2023-02-20T08:45:44;31.02;;;12.90;;
44189;SDS011;29856;52.144;5.430;2023-02-20T08:48:10;34.83;;;13.63;;
44189;SDS011;29856;52.144;5.430;2023-02-20T08:50:35;33.00;;;13.52;;
44189;SDS011;29856;52.144;5.430;2023-02-20T08:53:01;32.90;;;13.80;;
44189;SDS011;29856;52.144;5.430;2023-02-20T08:55:26;29.90;;;14.18;;
44189;SDS011;29856;52.144;5.430;2023-02-20T08:57:52;37.20;;;15.55;;
44189;SDS011;29856;52.144;5.430;2023-02-20T09:00:17;41.42;;;13.98;;
44189;SDS011;29856;52.144;5.430;2023-02-20T09:02:45;29.60;;;13.70;;
44189;SDS011;29856;52.144;5.430;2023-02-20T09:05:10;32.42;;;14.30;;
44189;SDS011;29856;52.144;5.430;2023-02-20T09:07:36;32.45;;;14.05;;
44189;SDS011;29856;52.144;5.430;2023-02-20T09:10:02;40.50;;;15.30;;
44189;SDS011;29856;52.144;5.430;2023-02-20T09:12:28;41.75;;;17.50;;
44189;SDS011;29856;52.144;5.430;2023-02-20T09:14:53;31.38;;;14.85;;
44189;SDS011;29856;52.144;5.430;2023-02-20T09:17:18;41.05;;;17.02;;
44189;SDS011;29856;52.144;5.430;2023-02-20T09:19:44;39.38;;;14.57;;
44189;SDS011;29856;52.144;5.430;2023-02-20T09:22:09;34.10;;;14.98;;
44189;SDS011;29856;52.144;5.430;2023-02-20T09:24:35;36.33;;;14.32;;
44189;SDS011;29856;52.144;5.430;2023-02-20T09:27:01;33.00;;;15.25;;
44189;SDS011;29856;52.144;5.430;2023-02-20T09:29:27;33.67;;;16.77;;
44189;SDS011;29856;52.144;5.430;2023-02-20T09:31:53;34.72;;;17.30;;
44189;SDS011;29856;52.144;5.430;2023-02-20T09:34:19;40.40;;;18.55;;
44189;SDS011;29856;52.144;5.430;2023-02-20T09:36:45;33.05;;;16.10;;
44189;SDS011;29856;52.144;5.430;2023-02-20T09:39:11;34.78;;;15.23;;
44189;SDS011;29856;52.144;5.430;2023-02-20T09:44:24;31.25;;;15.80;;
44189;SDS011;29856;52.144;5.430;2023-02-20T09:50:04;31.85;;;16.60;;
44189;SDS011;29856;52.144;5.430;2023-02-20T09:52:35;35.20;;;15.88;;
44189;SDS011;29856;52.144;5.430;2023-02-20T09:55:04;31.05;;;14.95;;
44189;SDS011;29856;52.144;5.430;2023-02-20T09:57:35;40.13;;;16.70;;
44189;SDS011;29856;52.144;5.430;2023-02-20T10:00:09;28.27;;;15.35;;
44189;SDS011;29856;52.144;5.430;2023-02-20T10:02:41;29.30;;;16.20;;
44189;SDS011;29856;52.144;5.430;2023-02-20T10:05:13;31.88;;;15.30;;
44189;SDS011;29856;52.144;5.430;2023-02-20T10:07:45;28.63;;;14.32;;
44189;SDS011;29856;52.144;5.430;2023-02-20T10:10:18;25.52;;;14.07;;
44189;SDS011;29856;52.144;5.430;2023-02-20T10:15:34;26.40;;;13.68;;
44189;SDS011;29856;52.144;5.430;2023-02-20T10:23:46;31.55;;;13.48;;
44189;SDS011;29856;52.144;5.430;2023-02-20T10:26:21;27.88;;;12.93;;
44189;SDS011;29856;52.144;5.430;2023-02-20T10:28:51;27.05;;;12.98;;
44189;SDS011;29856;52.144;5.430;2023-02-20T10:31:21;23.55;;;12.32;;
44189;SDS011;29856;52.144;5.430;2023-02-20T10:34:13;23.90;;;12.88;;
44189;SDS011;29856;52.144;5.430;2023-02-20T10:36:46;24.92;;;12.45;;
44189;SDS011;29856;52.144;5.430;2023-02-20T10:39:17;20.85;;;10.45;;
44189;SDS011;29856;52.144;5.430;2023-02-20T10:41:52;22.50;;;10.80;;
44189;SDS011;29856;52.144;5.430;2023-02-20T10:44:28;23.45;;;11.60;;
44189;SDS011;29856;52.144;5.430;2023-02-20T10:47:04;19.55;;;10.57;;
44189;SDS011;29856;52.144;5.430;2023-02-20T10:49:58;20.50;;;10.80;;
44189;SDS011;29856;52.144;5.430;2023-02-20T10:52:38;21.02;;;9.82;;
44189;SDS011;29856;52.144;5.430;2023-02-20T11:03:44;19.08;;;9.38;;
44189;SDS011;29856;52.144;5.430;2023-02-20T11:06:19;22.80;;;11.30;;
44189;SDS011;29856;52.144;5.430;2023-02-20T11:08:46;20.25;;;11.88;;
44189;SDS011;29856;52.144;5.430;2023-02-20T11:11:32;27.65;;;12.75;;
44189;SDS011;29856;52.144;5.430;2023-02-20T11:14:00;19.20;;;12.88;;
44189;SDS011;29856;52.144;5.430;2023-02-20T11:16:35;18.70;;;12.57;;
44189;SDS011;29856;52.144;5.430;2023-02-20T11:19:19;21.20;;;13.50;;
44189;SDS011;29856;52.144;5.430;2023-02-20T11:21:49;19.88;;;12.60;;
44189;SDS011;29856;52.144;5.430;2023-02-20T11:24:16;20.75;;;14.38;;
44189;SDS011;29856;52.144;5.430;2023-02-20T11:27:27;24.15;;;15.98;;
44189;SDS011;29856;52.144;5.430;2023-02-20T11:29:39;24.73;;;15.52;;
44189;SDS011;29856;52.144;5.430;2023-02-20T11:35:10;27.75;;;16.23;;
44189;SDS011;29856;52.144;5.430;2023-02-20T11:37:42;22.70;;;15.93;;
44189;SDS011;29856;52.144;5.430;2023-02-20T11:40:26;23.05;;;15.13;;
44189;SDS011;29856;52.144;5.430;2023-02-20T11:43:07;25.42;;;14.88;;
44189;SDS011;29856;52.144;5.430;2023-02-20T11:45:44;22.20;;;15.00;;
44189;SDS011;29856;52.144;5.430;2023-02-20T11:48:10;24.08;;;17.27;;
44189;SDS011;29856;52.144;5.430;2023-02-20T11:50:45;24.70;;;15.40;;
44189;SDS011;29856;52.144;5.430;2023-02-20T11:53:20;25.88;;;17.25;;
44189;SDS011;29856;52.144;5.430;2023-02-20T11:56:06;26.23;;;15.95;;
44189;SDS011;29856;52.144;5.430;2023-02-20T11:58:32;29.25;;;17.85;;
44189;SDS011;29856;52.144;5.430;2023-02-20T12:01:01;28.83;;;17.27;;
44189;SDS011;29856;52.144;5.430;2023-02-20T12:06:55;26.58;;;18.85;;
44189;SDS011;29856;52.144;5.430;2023-02-20T12:09:24;28.70;;;18.85;;
44189;SDS011;29856;52.144;5.430;2023-02-20T12:11:52;28.05;;;21.63;;
44189;SDS011;29856;52.144;5.430;2023-02-20T12:14:19;24.75;;;19.75;;
44189;SDS011;29856;52.144;5.430;2023-02-20T12:27:21;23.20;;;17.30;;
44189;SDS011;29856;52.144;5.430;2023-02-20T12:30:16;31.80;;;20.00;;
44189;SDS011;29856;52.144;5.430;2023-02-20T12:33:30;29.15;;;18.85;;
44189;SDS011;29856;52.144;5.430;2023-02-20T12:38:47;28.42;;;20.30;;
44189;SDS011;29856;52.144;5.430;2023-02-20T12:58:19;32.33;;;19.15;;
44189;SDS011;29856;52.144;5.430;2023-02-20T13:00:51;26.35;;;16.48;;
44189;SDS011;29856;52.144;5.430;2023-02-20T13:03:19;32.60;;;16.85;;
44189;SDS011;29856;52.144;5.430;2023-02-20T13:05:55;27.77;;;16.13;;
44189;SDS011;29856;52.144;5.430;2023-02-20T13:08:44;26.73;;;16.65;;
44189;SDS011;29856;52.144;5.430;2023-02-20T13:11:30;25.30;;;16.63;;
44189;SDS011;29856;52.144;5.430;2023-02-20T13:17:11;28.88;;;16.77;;
44189;SDS011;29856;52.144;5.430;2023-02-20T13:22:34;24.70;;;15.52;;
44189;SDS011;29856;52.144;5.430;2023-02-20T13:27:59;22.20;;;15.30;;
44189;SDS011;29856;52.144;5.430;2023-02-20T13:30:52;27.38;;;16.23;;
44189;SDS011;29856;52.144;5.430;2023-02-20T13:33:31;28.58;;;15.30;;
44189;SDS011;29856;52.144;5.430;2023-02-20T13:35:59;26.23;;;15.65;;
44189;SDS011;29856;52.144;5.430;2023-02-20T13:38:26;26.27;;;15.50;;
44189;SDS011;29856;52.144;5.430;2023-02-20T13:43:25;33.22;;;17.95;;
44189;SDS011;29856;52.144;5.430;2023-02-20T13:46:13;25.25;;;19.40;;
44189;SDS011;29856;52.144;5.430;2023-02-20T13:48:41;25.10;;;16.55;;
44189;SDS011;29856;52.144;5.430;2023-02-20T13:53:40;35.92;;;20.55;;
44189;SDS011;29856;52.144;5.430;2023-02-20T13:56:15;33.75;;;20.75;;
44189;SDS011;29856;52.144;5.430;2023-02-20T13:59:01;25.42;;;19.65;;
44189;SDS011;29856;52.144;5.430;2023-02-20T14:01:29;32.30;;;22.65;;
44189;SDS011;29856;52.144;5.430;2023-02-20T14:04:01;33.63;;;22.67;;
44189;SDS011;29856;52.144;5.430;2023-02-20T14:06:28;31.13;;;21.77;;
44189;SDS011;29856;52.144;5.430;2023-02-20T14:09:06;32.53;;;22.05;;
44189;SDS011;29856;52.144;5.430;2023-02-20T14:11:34;34.17;;;22.13;;
44189;SDS011;29856;52.144;5.430;2023-02-20T14:14:04;32.53;;;22.70;;
44189;SDS011;29856;52.144;5.430;2023-02-20T14:16:36;31.00;;;23.95;;
44189;SDS011;29856;52.144;5.430;2023-02-20T14:19:06;34.50;;;23.92;;
44189;SDS011;29856;52.144;5.430;2023-02-20T14:24:20;35.80;;;24.07;;
44189;SDS011;29856;52.144;5.430;2023-02-20T14:26:51;40.35;;;25.45;;
44189;SDS011;29856;52.144;5.430;2023-02-20T14:31:51;37.08;;;23.95;;
44189;SDS011;29856;52.144;5.430;2023-02-20T14:42:44;30.98;;;23.10;;
44189;SDS011;29856;52.144;5.430;2023-02-20T14:45:13;31.85;;;22.48;;
44189;SDS011;29856;52.144;5.430;2023-02-20T14:47:50;31.38;;;23.60;;
44189;SDS011;29856;52.144;5.430;2023-02-20T14:50:24;32.17;;;23.98;;
44189;SDS011;29856;52.144;5.430;2023-02-20T14:53:00;31.48;;;22.30;;
44189;SDS011;29856;52.144;5.430;2023-02-20T14:55:35;35.67;;;25.38;;
44189;SDS011;29856;52.144;5.430;2023-02-20T14:58:21;36.40;;;23.48;;
44189;SDS011;29856;52.144;5.430;2023-02-20T15:03:25;37.72;;;25.83;;
44189;SDS011;29856;52.144;5.430;2023-02-20T15:05:52;32.72;;;23.50;;
44189;SDS011;29856;52.144;5.430;2023-02-20T15:08:21;38.22;;;25.50;;
44189;SDS011;29856;52.144;5.430;2023-02-20T15:10:51;34.40;;;27.20;;
44189;SDS011;29856;52.144;5.430;2023-02-20T15:13:23;39.35;;;25.77;;
44189;SDS011;29856;52.144;5.430;2023-02-20T15:15:51;39.30;;;24.48;;
44189;SDS011;29856;52.144;5.430;2023-02-20T15:18:32;33.28;;;25.27;;
44189;SDS011;29856;52.144;5.430;2023-02-20T15:21:01;34.58;;;25.27;;
44189;SDS011;29856;52.144;5.430;2023-02-20T15:29:17;33.88;;;26.77;;
44189;SDS011;29856;52.144;5.430;2023-02-20T15:31:45;43.08;;;28.30;;
44189;SDS011;29856;52.144;5.430;2023-02-20T15:34:19;42.13;;;28.05;;
44189;SDS011;29856;52.144;5.430;2023-02-20T15:36:52;44.83;;;30.33;;
44189;SDS011;29856;52.144;5.430;2023-02-20T15:39:18;40.17;;;29.85;;
44189;SDS011;29856;52.144;5.430;2023-02-20T15:41:45;41.17;;;30.95;;
44189;SDS011;29856;52.144;5.430;2023-02-20T15:44:12;35.60;;;25.77;;
44189;SDS011;29856;52.144;5.430;2023-02-20T15:46:37;38.30;;;27.90;;
44189;SDS011;29856;52.144;5.430;2023-02-20T15:49:03;34.47;;;24.58;;
44189;SDS011;29856;52.144;5.430;2023-02-20T15:51:29;31.55;;;24.75;;
44189;SDS011;29856;52.144;5.430;2023-02-20T15:53:56;37.90;;;26.17;;
44189;SDS011;29856;52.144;5.430;2023-02-20T15:56:22;37.80;;;26.77;;
44189;SDS011;29856;52.144;5.430;2023-02-20T15:58:50;33.92;;;24.42;;
44189;SDS011;29856;52.144;5.430;2023-02-20T16:01:16;36.45;;;25.27;;
44189;SDS011;29856;52.144;5.430;2023-02-20T16:03:41;37.22;;;24.02;;
44189;SDS011;29856;52.144;5.430;2023-02-20T16:06:07;97.05;;;33.42;;
44189;SDS011;29856;52.144;5.430;2023-02-20T16:08:33;33.22;;;25.33;;
44189;SDS011;29856;52.144;5.430;2023-02-20T16:10:58;32.80;;;24.88;;
44189;SDS011;29856;52.144;5.430;2023-02-20T16:13:28;27.23;;;23.48;;
44189;SDS011;29856;52.144;5.430;2023-02-20T16:15:55;35.13;;;24.08;;
44189;SDS011;29856;52.144;5.430;2023-02-20T16:18:21;31.30;;;23.80;;
44189;SDS011;29856;52.144;5.430;2023-02-20T16:20:48;31.15;;;22.98;;
44189;SDS011;29856;52.144;5.430;2023-02-20T16:23:14;31.58;;;23.17;;
44189;SDS011;29856;52.144;5.430;2023-02-20T16:25:39;38.08;;;25.48;;
44189;SDS011;29856;52.144;5.430;2023-02-20T16:28:05;33.67;;;24.95;;
44189;SDS011;29856;52.144;5.430;2023-02-20T16:30:37;30.20;;;23.90;;
44189;SDS011;29856;52.144;5.430;2023-02-20T16:33:11;33.17;;;23.33;;
44189;SDS011;29856;52.144;5.430;2023-02-20T16:35:43;30.13;;;22.70;;